Time;durP1;ratioP1;P1;durP2;ratioP2;P2;SDS_P1;SDS_P2;PMS_P1;PMS_P2;Temp;Humidity;BMP_temperature;BMP_pressure;BME280_temperature;BME280_humidity;BME280_pressure;Samples;Min_cycle;Max_cycle;Signal;HPM_P1;HPM_P2
2021/01/29 00:01:01;;;;;;;2.37;1.83;;;;;;;7.28;91.58;96666.25;5046493;28;20918;-81
2021/01/29 00:03:29;;;;;;;2.00;1.70;;;;;;;7.29;91.33;96662.75;5046458;28;20476;-79
2021/01/29 00:05:58;;;;;;;2.27;2.07;;;;;;;7.29;91.17;96663.56;5045755;28;20260;-80
2021/01/29 00:08:24;;;;;;;2.10;1.90;;;;;;;7.29;91.02;96662.75;5049094;28;20304;-79
2021/01/29 00:10:52;;;;;;;89.77;5.83;;;;;;;7.25;90.54;96659.47;5047381;28;20241;-79
2021/01/29 00:13:18;;;;;;;7.80;2.90;;;;;;;7.24;90.65;96662.97;5047020;28;20214;-79
2021/01/29 00:15:45;;;;;;;1.00;0.93;;;;;;;7.21;90.75;96657.09;5045548;28;20811;-80
2021/01/29 00:18:12;;;;;;;2.93;1.80;;;;;;;7.22;91.01;96661.34;5048289;28;20218;-80
2021/01/29 00:20:39;;;;;;;2.23;1.97;;;;;;;7.22;90.57;96653.56;5041181;28;20230;-79
2021/01/29 00:23:05;;;;;;;2.57;2.30;;;;;;;7.23;90.93;96644.91;5047346;28;20515;-82
2021/01/29 00:25:35;;;;;;;3.23;2.33;;;;;;;7.22;90.78;96648.38;5041464;28;20238;-79
2021/01/29 00:28:02;;;;;;;4.17;2.90;;;;;;;7.18;90.91;96641.69;5048618;28;20229;-79
2021/01/29 00:30:29;;;;;;;3.10;2.50;;;;;;;7.13;90.93;96639.31;5047131;28;20234;-80
2021/01/29 00:32:56;;;;;;;2.20;1.90;;;;;;;7.11;90.81;96644.59;5046436;28;20209;-79
2021/01/29 00:35:23;;;;;;;2.87;2.57;;;;;;;7.12;90.88;96635.88;5045802;28;20324;-80
2021/01/29 00:37:50;;;;;;;3.43;2.73;;;;;;;7.14;90.99;96631.44;5047147;28;20229;-79
2021/01/29 00:40:17;;;;;;;4.47;3.80;;;;;;;7.17;90.75;96632.22;5044833;28;20230;-81
2021/01/29 00:42:44;;;;;;;5.40;3.70;;;;;;;7.19;90.85;96643.38;5047032;28;20278;-80
2021/01/29 00:45:12;;;;;;;3.60;2.97;;;;;;;7.18;90.60;96632.16;5044385;28;20234;-81
2021/01/29 00:47:38;;;;;;;4.80;3.47;;;;;;;7.20;90.98;96629.47;5046134;28;20213;-79
2021/01/29 00:50:06;;;;;;;74.13;6.93;;;;;;;7.21;90.85;96631.16;5045408;28;20276;-79
2021/01/29 00:52:33;;;;;;;5.97;2.93;;;;;;;7.20;90.00;96619.94;5047594;28;20713;-81
2021/01/29 00:55:00;;;;;;;5.13;2.83;;;;;;;7.19;89.95;96610.50;5047109;28;20239;-81
2021/01/29 00:57:27;;;;;;;154.30;8.97;;;;;;;7.19;89.67;96617.44;5046536;28;20241;-80
2021/01/29 00:59:53;;;;;;;2.10;1.90;;;;;;;7.16;90.20;96618.41;5043961;28;20234;-80
2021/01/29 01:02:19;;;;;;;43.37;4.10;;;;;;;7.13;90.21;96619.41;5044727;28;20243;-82
2021/01/29 01:04:45;;;;;;;52.20;4.97;;;;;;;7.07;89.52;96622.28;5045775;28;20715;-80
2021/01/29 01:07:12;;;;;;;30.57;2.70;;;;;;;7.01;89.59;96620.00;5045766;28;20238;-82
2021/01/29 01:09:38;;;;;;;7.47;2.97;;;;;;;6.99;89.98;96615.84;5040697;28;20207;-82
2021/01/29 01:12:06;;;;;;;19.90;2.70;;;;;;;6.96;89.60;96616.78;5043205;28;20711;-80
2021/01/29 01:14:32;;;;;;;34.27;3.30;;;;;;;6.96;90.07;96611.63;5048999;28;20284;-80
2021/01/29 01:16:58;;;;;;;13.23;2.13;;;;;;;6.97;89.63;96602.09;5043734;28;20238;-80
2021/01/29 01:19:25;;;;;;;10.57;2.10;;;;;;;6.95;89.45;96589.22;5044301;28;20248;-80
2021/01/29 01:21:51;;;;;;;18.33;2.47;;;;;;;6.95;89.63;96591.81;5044775;28;20245;-80
2021/01/29 01:24:17;;;;;;;12.57;2.00;;;;;;;6.91;89.48;96588.53;5045820;28;20234;-80
2021/01/29 01:26:44;;;;;;;11.33;2.00;;;;;;;6.88;89.30;96593.84;5040885;28;20241;-79
2021/01/29 01:29:11;;;;;;;32.37;3.07;;;;;;;6.86;89.93;96584.47;5046277;28;20269;-80
2021/01/29 01:31:37;;;;;;;53.80;5.07;;;;;;;6.82;89.75;96578.59;5041795;28;20237;-81
2021/01/29 01:34:03;;;;;;;11.97;2.07;;;;;;;6.82;89.80;96577.75;5042377;28;20263;-80
2021/01/29 01:36:30;;;;;;;3.77;1.73;;;;;;;6.84;89.35;96574.19;5042986;28;20987;-81
2021/01/29 01:38:56;;;;;;;4.63;1.60;;;;;;;6.85;89.97;96570.66;5045512;28;20905;-81
2021/01/29 01:41:22;;;;;;;12.33;2.07;;;;;;;6.86;89.85;96566.34;5040569;28;20245;-81
2021/01/29 01:43:48;;;;;;;38.53;3.73;;;;;;;6.86;89.13;96563.75;5045374;28;20251;-81
2021/01/29 01:46:17;;;;;;;11.83;2.10;;;;;;;6.82;89.25;96557.88;5044511;28;20263;-80
2021/01/29 01:48:49;;;;;;;74.90;5.13;;;;;;;6.79;89.02;96558.03;5045712;28;20229;-83
2021/01/29 01:51:23;;;;;;;88.83;6.43;;;;;;;6.78;89.24;96550.31;5045270;28;20291;-80
2021/01/29 01:53:50;;;;;;;35.23;3.73;;;;;;;6.73;89.21;96532.41;5046597;28;20217;-81
2021/01/29 01:56:20;;;;;;;77.47;8.03;;;;;;;6.77;88.96;96533.09;5044077;28;20245;-82
2021/01/29 01:58:50;;;;;;;49.93;4.93;;;;;;;6.73;88.81;96528.06;5044619;28;20244;-81
2021/01/29 02:01:19;;;;;;;43.87;4.67;;;;;;;6.73;89.26;96527.22;5044495;28;20237;-80
2021/01/29 02:03:45;;;;;;;14.73;4.10;;;;;;;6.74;89.54;96523.72;5044324;28;20228;-81
2021/01/29 02:06:12;;;;;;;50.67;4.93;;;;;;;6.73;88.82;96517.69;5044410;28;20242;-82
2021/01/29 02:08:39;;;;;;;40.40;4.43;;;;;;;6.72;89.17;96505.66;5044843;28;20680;-80
2021/01/29 02:11:05;;;;;;;57.73;6.37;;;;;;;6.72;89.17;96510.00;5043529;28;20242;-81
2021/01/29 02:13:32;;;;;;;53.53;5.97;;;;;;;6.70;89.08;96510.06;5047443;28;20259;-81
2021/01/29 02:16:03;;;;;;;62.17;5.77;;;;;;;6.70;88.53;96504.06;5042489;28;20241;-80
2021/01/29 02:18:32;;;;;;;28.00;4.73;;;;;;;6.70;88.68;96506.66;5047939;28;20238;-81
2021/01/29 02:21:37;;;;;;;61.70;5.57;;;;;;;6.64;88.31;96497.44;5042150;28;20242;-82
2021/01/29 02:24:48;;;;;;;37.40;5.07;;;;;;;6.64;88.25;96494.00;5041036;28;20256;-81
2021/01/29 02:27:27;;;;;;;40.50;5.40;;;;;;;6.58;88.43;96487.38;5045590;28;20525;-82
2021/01/29 02:30:08;;;;;;;18.27;3.93;;;;;;;6.58;88.62;96487.38;5046038;28;20217;-82
2021/01/29 02:33:03;;;;;;;20.13;3.80;;;;;;;6.57;88.84;96491.69;5044489;28;20240;-81
2021/01/29 02:36:03;;;;;;;18.80;3.63;;;;;;;6.56;88.16;96478.81;5044439;28;20632;-80
2021/01/29 02:38:39;;;;;;;17.63;3.87;;;;;;;6.52;88.19;96466.94;5047691;28;20218;-83
2021/01/29 02:41:10;;;;;;;23.53;3.90;;;;;;;6.50;88.11;96471.34;5044048;28;20241;-80
2021/01/29 02:43:53;;;;;;;7.90;3.43;;;;;;;6.50;88.55;96468.75;5045203;28;20279;-80
2021/01/29 02:46:28;;;;;;;5.93;3.60;;;;;;;6.52;88.48;96466.94;5043566;28;20253;-80
2021/01/29 02:49:02;;;;;;;10.37;3.53;;;;;;;6.52;88.10;96449.63;5044864;28;20208;-80
2021/01/29 02:51:33;;;;;;;5.47;3.30;;;;;;;6.53;88.11;96451.31;5044618;28;20269;-81
2021/01/29 02:54:10;;;;;;;9.67;3.10;;;;;;;6.48;88.20;96449.88;5044670;28;20305;-80
2021/01/29 02:56:37;;;;;;;26.57;4.33;;;;;;;6.44;88.52;96453.53;5045802;28;20257;-81
2021/01/29 02:59:09;;;;;;;31.93;4.50;;;;;;;6.42;88.12;96447.59;5044569;28;20237;-81
2021/01/29 03:01:38;;;;;;;16.00;3.57;;;;;;;6.43;88.59;96444.06;5045445;28;20241;-81
2021/01/29 03:04:07;;;;;;;52.10;5.97;;;;;;;6.42;87.85;96432.06;5044696;28;20222;-81
2021/01/29 03:06:36;;;;;;;25.37;3.93;;;;;;;6.43;87.87;96425.94;5044805;28;20238;-81
2021/01/29 03:09:09;;;;;;;15.10;3.30;;;;;;;6.45;88.12;96416.34;5044648;28;20218;-82
2021/01/29 03:11:38;;;;;;;20.10;4.20;;;;;;;6.46;88.53;96415.44;5043088;28;20242;-80
2021/01/29 03:14:09;;;;;;;8.67;2.90;;;;;;;6.46;87.76;96407.69;5045057;28;20229;-82
2021/01/29 03:16:39;;;;;;;7.40;3.60;;;;;;;6.47;88.26;96406.75;5043354;28;20346;-81
2021/01/29 03:19:08;;;;;;;6.70;3.43;;;;;;;6.46;88.09;96399.91;5044597;28;20238;-81
2021/01/29 03:21:36;;;;;;;5.87;3.30;;;;;;;6.45;88.38;96395.63;5041868;28;20241;-81
2021/01/29 03:24:08;;;;;;;5.70;3.47;;;;;;;6.43;88.27;96393.09;5044676;28;20226;-81
2021/01/29 03:26:37;;;;;;;4.43;2.60;;;;;;;6.42;87.87;96388.03;5045039;28;20242;-80
2021/01/29 03:29:07;;;;;;;5.80;2.50;;;;;;;6.41;88.24;96386.34;5040417;28;20830;-82
2021/01/29 03:31:34;;;;;;;7.80;2.60;;;;;;;6.38;87.81;96371.81;5044421;28;20237;-80
2021/01/29 03:34:04;;;;;;;4.97;2.50;;;;;;;6.41;88.48;96376.00;5047148;28;20606;-80
2021/01/29 03:36:35;;;;;;;6.23;2.70;;;;;;;6.43;88.10;96374.16;5046576;28;20298;-81
2021/01/29 03:39:05;;;;;;;38.37;3.73;;;;;;;6.41;87.91;96365.63;5047300;28;20238;-80
2021/01/29 03:41:35;;;;;;;16.37;3.37;;;;;;;6.41;87.65;96355.28;5046604;28;20249;-80
2021/01/29 03:44:08;;;;;;;8.00;2.50;;;;;;;6.40;87.71;96349.25;5048462;28;20220;-82
2021/01/29 03:46:39;;;;;;;27.93;3.67;;;;;;;6.37;87.46;96350.25;5048144;28;20238;-80
2021/01/29 03:49:13;;;;;;;14.97;3.03;;;;;;;6.34;87.77;96350.41;5049778;28;20752;-80
2021/01/29 03:51:48;;;;;;;8.60;2.83;;;;;;;6.33;87.56;96346.13;5045653;28;20792;-81
2021/01/29 03:54:21;;;;;;;6.53;2.53;;;;;;;6.32;87.38;96341.88;5044876;28;20217;-81
2021/01/29 03:56:59;;;;;;;7.30;2.50;;;;;;;6.30;87.17;96333.34;5046360;28;20843;-80
2021/01/29 03:59:29;;;;;;;8.53;2.60;;;;;;;6.30;87.77;96333.34;5048318;28;20293;-81
2021/01/29 04:02:00;;;;;;;10.63;2.73;;;;;;;6.32;87.92;96325.50;5046864;28;20892;-80
2021/01/29 04:04:29;;;;;;;4.70;3.20;;;;;;;6.32;87.93;96325.50;5048846;28;20923;-80
2021/01/29 04:07:05;;;;;;;6.03;3.03;;;;;;;6.29;87.68;96321.31;5045896;28;20607;-81
2021/01/29 04:09:39;;;;;;;8.00;2.73;;;;;;;6.29;87.19;96310.97;5048587;28;20214;-80
2021/01/29 04:12:06;;;;;;;5.67;3.23;;;;;;;6.30;87.57;96299.69;5046905;28;20245;-81
2021/01/29 04:14:37;;;;;;;7.80;3.37;;;;;;;6.31;87.79;96298.78;5046341;28;20375;-81
2021/01/29 04:17:06;;;;;;;6.73;2.83;;;;;;;6.33;87.71;96296.94;5045847;28;20238;-82
2021/01/29 04:19:34;;;;;;;6.30;3.27;;;;;;;6.33;87.18;96291.75;5049232;28;20234;-80
2021/01/29 04:22:03;;;;;;;4.07;2.77;;;;;;;6.30;87.36;96291.91;5045822;28;20244;-81
2021/01/29 04:24:33;;;;;;;7.27;3.40;;;;;;;6.29;87.25;96284.25;5046942;28;20343;-81
2021/01/29 04:27:03;;;;;;;4.73;3.30;;;;;;;6.29;87.76;96281.66;5045237;28;20238;-83
2021/01/29 04:29:33;;;;;;;4.33;2.83;;;;;;;6.25;87.00;96278.38;5047252;28;20206;-80
2021/01/29 04:32:02;;;;;;;5.43;3.10;;;;;;;6.22;87.55;96269.94;5045552;28;20906;-80
2021/01/29 04:34:31;;;;;;;4.67;2.87;;;;;;;6.20;87.27;96264.84;5046473;28;20265;-81
2021/01/29 04:37:02;;;;;;;4.07;2.93;;;;;;;6.20;87.97;96259.66;5045723;28;20237;-81
2021/01/29 04:39:30;;;;;;;5.30;3.33;;;;;;;6.20;87.66;96254.47;5047828;28;20732;-81
2021/01/29 04:42:05;;;;;;;4.97;2.90;;;;;;;6.21;86.96;96248.38;5045683;28;20248;-80
2021/01/29 04:44:47;;;;;;;5.43;2.70;;;;;;;6.19;87.27;96239.84;5047885;28;20230;-80
2021/01/29 04:47:18;;;;;;;5.77;3.27;;;;;;;6.18;87.60;96240.78;5046414;28;20238;-80
2021/01/29 04:49:59;;;;;;;7.67;3.60;;;;;;;6.17;87.15;96239.09;5046600;28;20217;-83
2021/01/29 04:53:09;;;;;;;22.03;3.33;;;;;;;5.96;86.77;96230.69;5046165;28;21092;-80
2021/01/29 04:55:42;;;;;;;3.97;2.33;;;;;;;5.97;87.51;96217.69;5047033;28;20242;-81
2021/01/29 04:58:12;;;;;;;4.37;2.60;;;;;;;6.01;88.31;96217.50;5046717;28;20598;-80
2021/01/29 05:01:03;;;;;;;5.77;3.40;;;;;;;5.91;88.79;96212.75;5043218;28;20260;-81
2021/01/29 05:04:12;;;;;;;17.60;12.57;;;;;;;5.83;88.63;96209.75;5047603;28;20226;-81
2021/01/29 05:07:03;;;;;;;4.87;2.90;;;;;;;5.91;89.60;96197.25;5045819;28;20245;-80
2021/01/29 05:09:48;;;;;;;6.60;3.53;;;;;;;6.02;89.61;96193.31;5030671;28;20691;-80
2021/01/29 05:12:48;;;;;;;5.67;3.07;;;;;;;6.11;89.53;96185.91;5044752;28;20410;-80
2021/01/29 05:15:55;;;;;;;18.80;3.70;;;;;;;6.06;89.22;96180.13;5046397;28;20730;-81
2021/01/29 05:18:51;;;;;;;5.23;3.00;;;;;;;6.07;89.11;96165.44;5043144;28;20225;-80
2021/01/29 05:21:59;;;;;;;5.20;2.67;;;;;;;6.11;89.19;96161.78;5045588;28;20252;-82
2021/01/29 05:24:53;;;;;;;5.47;2.80;;;;;;;6.17;90.22;96157.09;5046180;28;20233;-82
2021/01/29 05:27:40;;;;;;;5.23;2.47;;;;;;;6.28;90.04;96148.75;5029964;28;20242;-81
2021/01/29 05:30:19;;;;;;;5.77;2.70;;;;;;;6.28;91.71;96133.22;5044876;28;20214;-81
2021/01/29 05:33:18;;;;;;;5.17;3.33;;;;;;;6.37;90.91;96127.53;5046918;28;20751;-80
2021/01/29 05:35:55;;;;;;;4.17;2.50;;;;;;;6.53;97.04;96121.56;5043703;28;20765;-81
2021/01/29 05:38:54;;;;;;;5.17;3.13;;;;;;;6.76;96.43;96125.44;5046519;28;20227;-80
2021/01/29 05:41:41;;;;;;;4.90;3.30;;;;;;;6.84;97.11;96119.84;5046131;28;20244;-80
2021/01/29 05:44:18;;;;;;;4.97;3.57;;;;;;;7.01;98.00;96116.31;5047509;28;20217;-81
2021/01/29 05:46:54;;;;;;;7.47;3.80;;;;;;;7.13;97.38;96106.06;5044111;28;20747;-80
2021/01/29 05:49:22;;;;;;;4.63;3.10;;;;;;;7.20;97.15;96108.31;5047451;28;20217;-81
2021/01/29 05:52:17;;;;;;;3.83;2.43;;;;;;;7.27;99.33;96101.84;5043981;28;20240;-82
2021/01/29 05:55:04;;;;;;;4.83;2.50;;;;;;;7.36;99.78;96090.09;5045703;28;20303;-80
2021/01/29 05:57:55;;;;;;;4.20;2.30;;;;;;;7.50;100.00;96082.34;5044630;28;20234;-80
2021/01/29 06:00:30;;;;;;;2.80;2.00;;;;;;;7.58;100.00;96079.28;5045415;28;20229;-83
2021/01/29 06:03:07;;;;;;;3.30;1.93;;;;;;;7.69;99.92;96079.47;5037222;28;20251;-81
2021/01/29 06:05:48;;;;;;;4.60;2.40;;;;;;;7.78;100.00;96072.91;5048211;28;20237;-80
2021/01/29 06:08:54;;;;;;;3.67;2.13;;;;;;;7.83;100.00;96066.50;5050580;28;20563;-81
2021/01/29 06:11:42;;;;;;;2.80;2.07;;;;;;;7.93;100.00;96052.97;5028661;28;20240;-81
2021/01/29 06:14:36;;;;;;;3.03;2.57;;;;;;;7.94;100.00;96049.44;5049077;28;20252;-80
2021/01/29 06:17:28;;;;;;;3.50;2.70;;;;;;;8.04;100.00;96045.34;5046857;28;20252;-81
2021/01/29 06:20:09;;;;;;;4.53;2.40;;;;;;;8.07;99.99;96038.19;5027397;28;20230;-81
2021/01/29 06:22:54;;;;;;;4.93;3.27;;;;;;;8.11;100.00;96031.06;5047538;28;20245;-81
2021/01/29 06:25:50;;;;;;;4.07;3.10;;;;;;;8.16;100.00;96018.63;5046093;28;20306;-80
2021/01/29 06:28:38;;;;;;;6.80;3.70;;;;;;;8.21;99.21;96021.75;5048542;28;20210;-79
2021/01/29 06:31:37;;;;;;;7.17;5.33;;;;;;;8.19;99.57;96009.78;5047722;28;20620;-80
2021/01/29 06:34:15;;;;;;;5.07;3.30;;;;;;;8.25;98.66;95999.88;5048713;28;20214;-81
2021/01/29 06:36:48;;;;;;;4.90;3.10;;;;;;;8.34;98.76;96001.00;5044880;28;20245;-82
2021/01/29 06:39:21;;;;;;;4.13;3.07;;;;;;;8.32;98.77;96002.06;5047252;28;20261;-81
2021/01/29 06:42:25;;;;;;;4.97;2.77;;;;;;;8.32;98.70;95997.69;5045838;28;20368;-81
2021/01/29 06:45:38;;;;;;;4.20;2.63;;;;;;;8.33;98.23;95993.34;5021582;28;20350;-82
2021/01/29 06:48:31;;;;;;;4.60;3.13;;;;;;;8.35;98.32;95981.91;5024579;28;20248;-82
2021/01/29 06:51:09;;;;;;;4.27;2.93;;;;;;;8.38;98.32;95978.28;5043780;28;20245;-82
2021/01/29 06:54:00;;;;;;;2.93;2.30;;;;;;;8.38;98.71;95983.47;5048658;28;20222;-81
2021/01/29 06:56:50;;;;;;;3.70;2.40;;;;;;;8.37;99.18;95979.22;5045299;28;20745;-81
2021/01/29 06:59:30;;;;;;;3.87;3.07;;;;;;;8.38;99.23;95973.09;5046784;28;20240;-81
2021/01/29 07:02:19;;;;;;;4.15;3.20;;;;;;;8.37;99.14;95972.25;5044631;28;20752;-82
2021/01/29 07:05:13;;;;;;;4.07;3.00;;;;;;;8.43;98.85;95963.25;5046422;28;20875;-79
2021/01/29 07:07:59;;;;;;;4.53;2.93;;;;;;;8.45;98.45;95957.06;5043325;28;20324;-80
2021/01/29 07:10:50;;;;;;;4.95;2.60;;;;;;;8.40;99.00;95953.03;5038750;28;21083;-79
2021/01/29 07:13:28;;;;;;;3.87;2.90;;;;;;;8.46;98.70;95960.47;5025299;28;20214;-79
2021/01/29 07:16:05;;;;;;;3.97;2.83;;;;;;;8.46;99.14;95947.50;5041683;28;20237;-79
2021/01/29 07:18:55;;;;;;;4.07;2.57;;;;;;;8.44;98.77;95950.19;5043765;28;20649;-78
2021/01/29 07:21:38;;;;;;;3.80;2.47;;;;;;;8.54;98.12;95952.19;5041534;28;20244;-78
2021/01/29 07:24:15;;;;;;;5.77;2.50;;;;;;;8.53;98.12;95938.38;5042877;28;20214;-78
2021/01/29 07:27:03;;;;;;;4.30;2.30;;;;;;;8.47;98.79;95937.00;5042393;28;20233;-78
2021/01/29 07:30:07;;;;;;;4.00;2.30;;;;;;;8.48;99.19;95925.66;5045655;28;20202;-78
2021/01/29 07:32:45;;;;;;;3.53;2.20;;;;;;;8.52;98.89;95923.69;5014271;28;20234;-79
2021/01/29 07:35:17;;;;;;;4.03;2.50;;;;;;;8.53;98.45;95920.19;5036576;28;20230;-79
2021/01/29 07:38:19;;;;;;;3.80;2.20;;;;;;;8.55;98.51;95920.91;5040298;28;20210;-79
2021/01/29 07:41:02;;;;;;;2.40;1.90;;;;;;;8.55;98.43;95900.13;5037942;28;20240;-78
2021/01/29 07:43:38;;;;;;;3.73;2.37;;;;;;;8.51;98.18;95903.84;5041515;28;20612;-79
2021/01/29 07:46:17;;;;;;;2.77;2.30;;;;;;;8.57;98.25;95907.81;5041845;28;20252;-80
2021/01/29 07:49:12;;;;;;;2.20;1.90;;;;;;;8.55;98.21;95905.31;5038245;28;20214;-80
2021/01/29 07:51:45;;;;;;;3.17;1.97;;;;;;;8.57;97.98;95911.25;5042233;28;20917;-78
2021/01/29 07:54:41;;;;;;;3.40;1.93;;;;;;;8.55;99.29;95904.50;5041076;28;20687;-79
2021/01/29 07:57:18;;;;;;;2.40;1.63;;;;;;;8.59;98.15;95904.16;5034134;28;20230;-83
2021/01/29 08:00:00;;;;;;;1.97;1.63;;;;;;;8.59;98.57;95901.56;5039784;28;20244;-82
2021/01/29 08:02:40;;;;;;;2.27;1.80;;;;;;;8.66;97.41;95892.44;5039669;28;20230;-81
2021/01/29 08:05:16;;;;;;;1.60;1.40;;;;;;;8.60;98.07;95884.22;5038950;28;20238;-81
2021/01/29 08:07:47;;;;;;;2.63;1.30;;;;;;;8.64;98.08;95889.13;5041582;28;20249;-81
2021/01/29 08:10:25;;;;;;;1.63;1.33;;;;;;;8.68;97.69;95874.16;5042020;28;20226;-81
2021/01/29 08:13:10;;;;;;;1.88;1.10;;;;;;;8.55;98.95;95874.13;5042990;28;20667;-81
2021/01/29 08:15:48;;;;;;;1.70;1.20;;;;;;;8.65;98.28;95872.56;5044024;28;20333;-81
2021/01/29 08:18:37;;;;;;;1.83;1.00;;;;;;;8.67;98.08;95878.53;5043716;28;20306;-82
2021/01/29 08:21:31;;;;;;;2.23;0.77;;;;;;;8.63;98.66;95871.03;5045654;28;20237;-82
2021/01/29 08:24:03;;;;;;;2.13;0.80;;;;;;;8.72;98.35;95861.78;5047137;28;20211;-81
2021/01/29 08:26:44;;;;;;;3.55;1.45;;;;;;;8.70;98.49;95864.47;5080078;22;20271;-81
2021/01/29 08:29:40;;;;;;;3.60;1.60;;;;;;;8.72;99.07;95861.78;5059751;28;20642;-82
2021/01/29 08:32:43;;;;;;;5.30;1.77;;;;;;;8.71;99.48;95857.50;5058510;28;20247;-82
2021/01/29 08:35:44;;;;;;;2.57;1.23;;;;;;;8.62;100.00;95852.00;5041534;28;20729;-83
2021/01/29 08:38:16;;;;;;;5.83;2.17;;;;;;;8.72;99.92;95854.81;5029178;28;20317;-81
2021/01/29 08:40:51;;;;;;;2.47;0.80;;;;;;;8.72;100.00;95853.97;5025587;28;20250;-81
2021/01/29 08:43:54;;;;;;;0.73;0.60;;;;;;;8.78;100.00;95861.34;5026825;28;20325;-81
2021/01/29 08:46:34;;;;;;;3.03;0.40;;;;;;;8.81;99.42;95853.34;5024963;28;20238;-82
2021/01/29 08:49:25;;;;;;;0.80;0.33;;;;;;;8.79;99.96;95857.84;5028389;28;20668;-82
2021/01/29 08:51:53;;;;;;;1.00;0.30;;;;;;;8.91;98.79;95859.56;5025553;28;21054;-82
2021/01/29 08:54:36;;;;;;;0.75;0.40;;;;;;;8.80;98.18;95878.50;5025066;28;20233;-81
2021/01/29 08:57:12;;;;;;;1.60;0.60;;;;;;;9.03;97.50;95869.13;5024400;28;20246;-81
2021/01/29 08:59:40;;;;;;;2.00;0.50;;;;;;;9.06;97.17;95863.72;5026412;28;20527;-80
2021/01/29 09:02:28;;;;;;;0.73;0.30;;;;;;;8.91;96.15;95859.56;5022582;28;20893;-81
2021/01/29 09:04:57;;;;;;;0.90;0.30;;;;;;;8.83;97.02;95883.50;5027012;28;20971;-81
2021/01/29 09:07:24;;;;;;;0.60;0.20;;;;;;;8.91;95.59;95895.16;5025037;28;20648;-79
2021/01/29 09:09:51;;;;;;;1.60;0.28;;;;;;;8.85;94.79;95902.41;5026702;28;20318;-80
2021/01/29 09:12:21;;;;;;;0.38;0.20;;;;;;;8.85;94.01;95906.78;5023579;28;20911;-78
2021/01/29 09:14:53;;;;;;;0.52;0.20;;;;;;;9.06;93.24;95900.13;5024811;28;20314;-80
2021/01/29 09:17:22;;;;;;;0.43;0.22;;;;;;;9.12;92.44;95913.66;5025684;28;20230;-80
2021/01/29 09:19:56;;;;;;;0.47;0.33;;;;;;;8.97;93.53;95931.13;5025249;28;20881;-79
2021/01/29 09:22:25;;;;;;;2.42;1.08;;;;;;;9.01;93.25;95915.22;5023859;28;20223;-80
2021/01/29 09:24:58;;;;;;;2.25;0.80;;;;;;;9.14;92.42;95937.78;5024208;28;20246;-79
2021/01/29 09:27:39;;;;;;;0.50;0.30;;;;;;;9.14;91.95;95941.22;5025416;28;20739;-81
2021/01/29 09:30:11;;;;;;;1.20;0.40;;;;;;;9.17;91.74;95953.16;5023724;28;20926;-81
2021/01/29 09:32:51;;;;;;;0.28;0.10;;;;;;;9.05;90.48;95953.06;5027590;28;20871;-80
2021/01/29 09:35:25;;;;;;;0.10;0.10;;;;;;;8.93;91.87;95969.47;5023391;28;20246;-81
2021/01/29 09:37:53;;;;;;;0.93;0.20;;;;;;;9.15;91.44;95945.47;5027217;28;20221;-79
2021/01/29 09:40:22;;;;;;;1.55;0.30;;;;;;;9.20;90.94;95948.59;5022971;28;20234;-80
2021/01/29 09:42:54;;;;;;;0.87;0.20;;;;;;;9.16;89.85;95972.31;5023981;28;20218;-81
2021/01/29 09:45:23;;;;;;;0.20;0.20;;;;;;;9.13;90.87;95975.13;5024008;28;20773;-81
2021/01/29 09:47:57;;;;;;;1.42;0.20;;;;;;;8.95;91.10;95985.84;5024752;28;20218;-84
2021/01/29 09:50:24;;;;;;;0.20;0.20;;;;;;;9.04;90.51;95974.81;5024549;28;20240;-82
2021/01/29 09:53:00;;;;;;;0.97;0.37;;;;;;;9.05;90.63;95968.66;5025095;28;20227;-81
2021/01/29 09:55:28;;;;;;;0.50;0.50;;;;;;;8.98;91.03;95985.63;5023797;28;20233;-81
2021/01/29 09:57:59;;;;;;;0.97;0.50;;;;;;;9.25;89.13;95989.91;5023482;28;20330;-80
2021/01/29 10:00:28;;;;;;;0.67;0.20;;;;;;;9.32;88.99;95980.75;5021404;28;20249;-80
2021/01/29 10:02:59;;;;;;;0.45;0.10;;;;;;;8.98;89.48;95996.00;5025271;28;20222;-81
2021/01/29 10:05:29;;;;;;;0.50;0.23;;;;;;;9.29;89.34;95986.16;5023058;28;20253;-80
2021/01/29 10:08:11;;;;;;;0.60;0.30;;;;;;;9.18;89.41;95981.69;5024987;28;20214;-81
2021/01/29 10:10:48;;;;;;;0.73;0.20;;;;;;;9.22;90.05;95987.50;5021217;28;20735;-80
2021/01/29 10:13:23;;;;;;;0.40;0.20;;;;;;;9.27;89.46;95996.66;5025589;28;20218;-80
2021/01/29 10:16:25;;;;;;;0.50;0.30;;;;;;;9.26;89.86;95994.16;5022658;28;20246;-81
2021/01/29 10:19:16;;;;;;;0.60;0.30;;;;;;;9.32;90.15;95991.16;5029158;28;20301;-80
2021/01/29 10:22:10;;;;;;;0.20;0.15;;;;;;;9.02;92.54;96022.66;5023292;28;21111;-80
2021/01/29 10:24:40;;;;;;;0.97;0.00;;;;;;;9.03;92.60;96014.75;5020585;28;20330;-80
2021/01/29 10:27:13;;;;;;;0.40;0.30;;;;;;;8.84;93.29;96014.28;5023356;28;20834;-81
2021/01/29 10:29:41;;;;;;;0.45;0.13;;;;;;;8.95;92.82;96006.63;5023797;28;20215;-81
2021/01/29 10:32:12;;;;;;;1.57;0.80;;;;;;;9.05;92.41;96010.28;5021868;28;20238;-81
2021/01/29 10:34:41;;;;;;;0.30;0.20;;;;;;;9.01;92.68;96021.00;5021537;28;20226;-79
2021/01/29 10:37:13;;;;;;;1.85;0.30;;;;;;;8.87;93.98;96030.50;5021249;28;20266;-79
2021/01/29 10:40:05;;;;;;;1.08;0.30;;;;;;;8.88;94.74;96036.56;5022702;28;20242;-81
2021/01/29 10:42:35;;;;;;;0.30;0.30;;;;;;;8.85;91.79;96028.97;5026443;28;20284;-80
2021/01/29 10:45:02;;;;;;;0.30;0.20;;;;;;;8.49;97.06;96051.19;5025450;28;20265;-80
2021/01/29 10:47:35;;;;;;;0.32;0.20;;;;;;;8.42;98.51;96039.53;5021535;28;21284;-80
2021/01/29 10:50:12;;;;;;;0.50;0.30;;;;;;;8.44;99.03;96050.66;5027074;28;20679;-80
2021/01/29 10:52:41;;;;;;;1.27;0.40;;;;;;;8.58;97.73;96055.78;5023984;28;20260;-80
2021/01/29 10:55:17;;;;;;;2.60;0.50;;;;;;;8.65;96.77;96057.06;5022247;28;20239;-79
2021/01/29 10:57:53;;;;;;;1.43;0.60;;;;;;;8.66;96.83;96053.56;5022696;28;20210;-79
2021/01/29 11:00:21;;;;;;;1.58;0.70;;;;;;;8.86;96.09;96048.84;5023272;28;20582;-79
2021/01/29 11:02:50;;;;;;;1.40;0.90;;;;;;;8.92;95.07;96053.63;5024000;28;20309;-79
2021/01/29 11:05:21;;;;;;;1.57;0.50;;;;;;;8.78;95.36;96045.91;5020653;28;20233;-80
2021/01/29 11:07:50;;;;;;;0.17;0.13;;;;;;;8.93;94.70;96060.47;5024112;28;20259;-78
2021/01/29 11:10:22;;;;;;;0.55;0.38;;;;;;;9.00;93.73;96071.31;5025241;28;20210;-80
2021/01/29 11:12:52;;;;;;;0.53;0.40;;;;;;;8.89;93.80;96074.63;5026528;28;20215;-81
2021/01/29 11:15:23;;;;;;;0.43;0.30;;;;;;;8.86;93.74;96085.25;5025326;28;20246;-80
2021/01/29 11:17:54;;;;;;;0.53;0.37;;;;;;;9.02;92.85;96085.91;5026603;28;20245;-80
2021/01/29 11:20:25;;;;;;;0.47;0.47;;;;;;;9.16;91.79;96091.97;5024990;28;20242;-80
2021/01/29 11:22:59;;;;;;;0.30;0.30;;;;;;;9.06;90.84;96076.09;5029576;28;20252;-81
2021/01/29 11:25:59;;;;;;;0.50;0.40;;;;;;;9.00;91.16;96072.16;5025506;28;20753;-80
2021/01/29 11:28:36;;;;;;;0.93;0.60;;;;;;;9.00;91.14;96079.94;4974652;28;20605;-82
2021/01/29 11:31:06;;;;;;;1.23;1.13;;;;;;;9.21;90.57;96082.09;4978998;28;20247;-80
2021/01/29 11:33:34;;;;;;;2.13;1.70;;;;;;;8.88;90.10;96093.75;5004175;28;20207;-80
2021/01/29 11:36:06;;;;;;;18.97;4.07;;;;;;;9.16;88.87;96081.56;5024546;28;20246;-80
2021/01/29 11:38:40;;;;;;;8.33;3.60;;;;;;;9.09;88.12;96085.50;5025025;28;20228;-80
2021/01/29 11:41:15;;;;;;;1.05;0.60;;;;;;;8.90;87.63;96094.50;5025138;28;20239;-80
2021/01/29 11:43:45;;;;;;;1.35;0.47;;;;;;;9.13;87.67;96090.38;5025968;28;20214;-80
2021/01/29 11:46:17;;;;;;;2.13;0.57;;;;;;;9.29;87.14;96085.00;5026116;28;20253;-80
2021/01/29 11:48:50;;;;;;;3.22;0.60;;;;;;;9.20;86.64;96085.63;5026239;28;20218;-80
2021/01/29 11:51:24;;;;;;;1.43;0.73;;;;;;;9.22;86.71;96081.97;5025778;28;20245;-80
2021/01/29 11:53:57;;;;;;;2.22;0.68;;;;;;;9.23;86.46;96088.03;5027490;28;20682;-82
2021/01/29 11:56:26;;;;;;;2.03;0.45;;;;;;;9.24;86.55;96092.28;5030083;28;20942;-81
2021/01/29 11:58:59;;;;;;;1.75;0.70;;;;;;;9.28;86.13;96093.72;5030287;28;20218;-80
2021/01/29 12:01:30;;;;;;;6.47;1.85;;;;;;;9.06;84.22;96092.56;5030080;28;20332;-81
2021/01/29 12:04:05;;;;;;;15.93;4.50;;;;;;;9.29;82.82;96098.00;5030371;28;20214;-80
2021/01/29 12:06:34;;;;;;;1.83;0.70;;;;;;;9.37;82.25;96093.13;5028068;28;20242;-79
2021/01/29 12:09:03;;;;;;;2.58;0.65;;;;;;;9.34;81.53;96106.34;5029202;28;20218;-80
2021/01/29 12:11:35;;;;;;;1.98;0.65;;;;;;;9.48;80.93;96108.03;5028683;28;20226;-79
2021/01/29 12:14:17;;;;;;;2.13;0.50;;;;;;;9.56;80.01;96099.72;5029215;28;20219;-82
2021/01/29 12:16:44;;;;;;;3.83;0.55;;;;;;;9.62;79.12;96120.13;5025200;28;20649;-80
2021/01/29 12:19:25;;;;;;;6.75;1.15;;;;;;;9.67;77.87;96117.19;5029723;28;20207;-80
2021/01/29 12:22:04;;;;;;;1.83;0.40;;;;;;;9.24;76.99;96110.50;5028402;28;20743;-80